Time;durP1;ratioP1;P1;durP2;ratioP2;P2;SDS_P1;SDS_P2;PMS_P1;PMS_P2;Temp;Humidity;BMP_temperature;BMP_pressure;BME280_temperature;BME280_humidity;BME280_pressure;Samples;Min_cycle;Max_cycle;Signal;HPM_P1;HPM_P2
2023/07/18 00:00:37;;;;;;;;;;;;;;;;;;5033639;28;19921;-25
2023/07/18 00:03:03;;;;;;;;;;;;;;;;;;5033468;28;19913;-24
2023/07/18 00:05:29;;;;;;;;;;;;;;;;;;5035024;28;19985;-24
2023/07/18 00:07:55;;;;;;;;;;;;;;;;;;5037421;28;19909;-26
2023/07/18 00:10:21;;;;;;;;;;;;;;;;;;5037406;28;19909;-26
2023/07/18 00:12:47;;;;;;;;;;;;;;;;;;5037470;28;19920;-28
2023/07/18 00:15:13;;;;;;;;;;;;;;;;;;5037584;28;19924;-22
2023/07/18 00:17:39;;;;;;;;;;;;;;;;;;5037357;28;19924;-23
2023/07/18 00:20:09;;;;;;;;;;;;;;;;;;5019690;28;19916;-24
2023/07/18 00:22:35;;;;;;;;;;;;;;;;;;5037023;28;19909;-26
2023/07/18 00:25:01;;;;;;;;;;;;;;;;;;5037146;28;19979;-25
2023/07/18 00:27:28;;;;;;;;;;;;;;;;;;5037160;28;20399;-28
2023/07/18 00:29:55;;;;;;;;;;;;;;;;;;5037138;28;19924;-22
2023/07/18 00:32:22;;;;;;;;;;;;;;;;;;5036985;28;19920;-26
2023/07/18 00:34:49;;;;;;;;;;;;;;;;;;5037246;28;19917;-23
2023/07/18 00:37:15;;;;;;;;;;;;;;;;;;5036931;28;20351;-22
2023/07/18 00:39:41;;;;;;;;;;;;;;;;;;5036854;28;20060;-27
2023/07/18 00:42:07;;;;;;;;;;;;;;;;;;5019096;28;20363;-24
2023/07/18 00:44:33;;;;;;;;;;;;;;;;;;5036748;28;19913;-29
2023/07/18 00:46:59;;;;;;;;;;;;;;;;;;5036948;28;19909;-24
2023/07/18 00:49:25;;;;;;;;;;;;;;;;;;5036648;28;19916;-24
2023/07/18 00:51:51;;;;;;;;;;;;;;;;;;5036756;28;20354;-27
2023/07/18 00:54:17;;;;;;;;;;;;;;;;;;5037272;28;19919;-28
2023/07/18 00:56:44;;;;;;;;;;;;;;;;;;5036491;28;19913;-24
2023/07/18 00:59:10;;;;;;;;;;;;;;;;;;5036449;28;19947;-28
2023/07/18 01:01:36;;;;;;;;;;;;;;;;;;5036222;28;19960;-25
2023/07/18 01:04:02;;;;;;;;;;;;;;;;;;5036164;28;19921;-23
2023/07/18 01:06:28;;;;;;;;;;;;;;;;;;5036328;28;20319;-30
2023/07/18 01:08:54;;;;;;;;;;;;;;;;;;5036525;28;19921;-26
2023/07/18 01:11:21;;;;;;;;;;;;;;;;;;5036440;28;19910;-23
2023/07/18 01:13:47;;;;;;;;;;;;;;;;;;5036164;28;19909;-25
2023/07/18 01:16:15;;;;;;;;;;;;;;;;;;5036304;28;19913;-24
2023/07/18 01:18:41;;;;;;;;;;;;;;;;;;5035548;28;20263;-28
2023/07/18 01:21:07;;;;;;;;;;;;;;;;;;5035912;28;20066;-25
2023/07/18 01:23:33;;;;;;;;;;;;;;;;;;5035923;28;19971;-27
2023/07/18 01:25:59;;;;;;;;;;;;;;;;;;5035990;28;19916;-27
2023/07/18 01:28:25;;;;;;;;;;;;;;;;;;5036151;28;19909;-22
2023/07/18 01:30:51;;;;;;;;;;;;;;;;;;5035888;28;19910;-22
2023/07/18 01:33:17;;;;;;;;;;;;;;;;;;5035742;28;19910;-26
2023/07/18 01:35:43;;;;;;;;;;;;;;;;;;5035684;28;19909;-25
2023/07/18 01:38:09;;;;;;;;;;;;;;;;;;5035687;28;19920;-28
2023/07/18 01:40:35;;;;;;;;;;;;;;;;;;5035858;28;20363;-25
2023/07/18 01:43:01;;;;;;;;;;;;;;;;;;5035583;28;19944;-24
2023/07/18 01:45:30;;;;;;;;;;;;;;;;;;5035641;28;19920;-24
2023/07/18 01:47:56;;;;;;;;;;;;;;;;;;5035536;28;19937;-29
2023/07/18 01:50:22;;;;;;;;;;;;;;;;;;5035685;28;20256;-25
2023/07/18 01:52:48;;;;;;;;;;;;;;;;;;5035266;28;19909;-23
2023/07/18 01:55:14;;;;;;;;;;;;;;;;;;5035532;28;19920;-22
2023/07/18 01:57:40;;;;;;;;;;;;;;;;;;5035398;28;19940;-25
2023/07/18 02:00:10;;;;;;;;;;;;;;;;;;5035227;28;19921;-29
2023/07/18 02:02:36;;;;;;;;;;;;;;;;;;5035134;28;19913;-27
2023/07/18 02:05:04;;;;;;;;;;;;;;;;;;5035113;28;19931;-24
2023/07/18 02:07:30;;;;;;;;;;;;;;;;;;5035197;28;19931;-23
2023/07/18 02:09:55;;;;;;;;;;;;;;;;;;5035050;28;19909;-20
2023/07/18 02:12:21;;;;;;;;;;;;;;;;;;5034972;28;19920;-23
2023/07/18 02:14:47;;;;;;;;;;;;;;;;;;5035004;28;19920;-24
2023/07/18 02:17:13;;;;;;;;;;;;;;;;;;5035047;28;19920;-23
2023/07/18 02:19:40;;;;;;;;;;;;;;;;;;5034922;28;19975;-24
2023/07/18 02:22:05;;;;;;;;;;;;;;;;;;5034739;28;19924;-24
2023/07/18 02:24:32;;;;;;;;;;;;;;;;;;5034833;28;19913;-25
2023/07/18 02:26:58;;;;;;;;;;;;;;;;;;5035093;28;19996;-21
2023/07/18 02:29:24;;;;;;;;;;;;;;;;;;5034688;28;20366;-20
2023/07/18 02:31:50;;;;;;;;;;;;;;;;;;5034639;28;19909;-28
2023/07/18 02:34:16;;;;;;;;;;;;;;;;;;5034948;28;19960;-25
2023/07/18 02:36:41;;;;;;;;;;;;;;;;;;5034711;28;19909;-24
2023/07/18 02:39:10;;;;;;;;;;;;;;;;;;5034655;28;19909;-22
2023/07/18 02:41:36;;;;;;;;;;;;;;;;;;5034566;28;20015;-21
2023/07/18 02:44:02;;;;;;;;;;;;;;;;;;5034853;28;20252;-28
2023/07/18 02:46:28;;;;;;;;;;;;;;;;;;5034817;28;19959;-29
2023/07/18 02:48:54;;;;;;;;;;;;;;;;;;5034525;28;20303;-24
2023/07/18 02:51:20;;;;;;;;;;;;;;;;;;5034493;28;19909;-27
2023/07/18 02:53:46;;;;;;;;;;;;;;;;;;5034676;28;19909;-24
2023/07/18 02:56:12;;;;;;;;;;;;;;;;;;5034702;28;19917;-28
2023/07/18 02:58:38;;;;;;;;;;;;;;;;;;5034423;28;19909;-22
2023/07/18 03:01:04;;;;;;;;;;;;;;;;;;5034504;28;19917;-22
2023/07/18 03:03:30;;;;;;;;;;;;;;;;;;5034000;28;20252;-19
2023/07/18 03:05:56;;;;;;;;;;;;;;;;;;5034293;28;20225;-22
2023/07/18 03:08:22;;;;;;;;;;;;;;;;;;5035193;28;19909;-27
2023/07/18 03:10:48;;;;;;;;;;;;;;;;;;5034253;28;19932;-25
2023/07/18 03:13:14;;;;;;;;;;;;;;;;;;5034138;28;20002;-25
2023/07/18 03:15:40;;;;;;;;;;;;;;;;;;5034253;28;19931;-25
2023/07/18 03:18:06;;;;;;;;;;;;;;;;;;5034239;28;19913;-25
2023/07/18 03:20:32;;;;;;;;;;;;;;;;;;5034138;28;19913;-23
2023/07/18 03:22:58;;;;;;;;;;;;;;;;;;5034185;28;19910;-25
2023/07/18 03:25:24;;;;;;;;;;;;;;;;;;5034386;28;19960;-22
2023/07/18 03:27:49;;;;;;;;;;;;;;;;;;5034138;28;19909;-29
2023/07/18 03:30:16;;;;;;;;;;;;;;;;;;5034119;28;20436;-31
2023/07/18 03:32:42;;;;;;;;;;;;;;;;;;5033985;28;19999;-24
2023/07/18 03:35:09;;;;;;;;;;;;;;;;;;5034011;28;19963;-26
2023/07/18 03:37:35;;;;;;;;;;;;;;;;;;5033986;28;19932;-29
2023/07/18 03:40:01;;;;;;;;;;;;;;;;;;5034344;28;19917;-25
2023/07/18 03:42:27;;;;;;;;;;;;;;;;;;5037830;28;19913;-24
2023/07/18 03:44:53;;;;;;;;;;;;;;;;;;5037708;28;19909;-24
2023/07/18 03:47:19;;;;;;;;;;;;;;;;;;5037704;28;19913;-22
2023/07/18 03:49:45;;;;;;;;;;;;;;;;;;5037585;28;19909;-22
2023/07/18 03:52:11;;;;;;;;;;;;;;;;;;5037503;28;20287;-24
2023/07/18 03:54:37;;;;;;;;;;;;;;;;;;5037569;28;19909;-21
2023/07/18 03:57:03;;;;;;;;;;;;;;;;;;5037460;28;19934;-22
2023/07/18 03:59:29;;;;;;;;;;;;;;;;;;5037712;28;20347;-25
2023/07/18 04:01:55;;;;;;;;;;;;;;;;;;5037330;28;19970;-26
2023/07/18 04:04:21;;;;;;;;;;;;;;;;;;5019624;28;19928;-26
2023/07/18 04:06:47;;;;;;;;;;;;;;;;;;5037378;28;19915;-24
2023/07/18 04:09:14;;;;;;;;;;;;;;;;;;5019709;28;19977;-23
2023/07/18 04:11:41;;;;;;;;;;;;;;;;;;5037265;28;19983;-22
2023/07/18 04:14:07;;;;;;;;;;;;;;;;;;5019585;28;20362;-21
2023/07/18 04:16:33;;;;;;;;;;;;;;;;;;5037170;28;20000;-24
2023/07/18 04:18:59;;;;;;;;;;;;;;;;;;5037429;28;20386;-28
2023/07/18 04:21:25;;;;;;;;;;;;;;;;;;5037072;28;20309;-25
2023/07/18 04:23:51;;;;;;;;;;;;;;;;;;5036886;28;19910;-24
2023/07/18 04:26:17;;;;;;;;;;;;;;;;;;5036881;28;19910;-22
2023/07/18 04:28:43;;;;;;;;;;;;;;;;;;5036760;28;19913;-27
2023/07/18 04:31:09;;;;;;;;;;;;;;;;;;5036894;28;20015;-22
2023/07/18 04:33:35;;;;;;;;;;;;;;;;;;5036813;28;19913;-23
2023/07/18 04:36:01;;;;;;;;;;;;;;;;;;5036746;28;20370;-25
2023/07/18 04:38:27;;;;;;;;;;;;;;;;;;5037061;28;19909;-22
2023/07/18 04:40:53;;;;;;;;;;;;;;;;;;5036695;28;19956;-29
2023/07/18 04:43:19;;;;;;;;;;;;;;;;;;5036613;28;19920;-25
2023/07/18 04:45:45;;;;;;;;;;;;;;;;;;5036610;28;19909;-23
2023/07/18 04:48:11;;;;;;;;;;;;;;;;;;5036528;28;19984;-25
2023/07/18 04:50:37;;;;;;;;;;;;;;;;;;5036418;28;20036;-28
2023/07/18 04:53:03;;;;;;;;;;;;;;;;;;5035084;28;20007;-24
2023/07/18 04:55:29;;;;;;;;;;;;;;;;;;5036350;28;19975;-25
2023/07/18 04:57:55;;;;;;;;;;;;;;;;;;5036594;28;19917;-24
2023/07/18 05:00:21;;;;;;;;;;;;;;;;;;5035927;28;19920;-22
2023/07/18 05:02:47;;;;;;;;;;;;;;;;;;5035898;28;19909;-23
2023/07/18 05:05:13;;;;;;;;;;;;;;;;;;5035783;28;19921;-23
2023/07/18 05:07:41;;;;;;;;;;;;;;;;;;5036345;28;19913;-26
2023/07/18 05:10:07;;;;;;;;;;;;;;;;;;5036265;28;19921;-32
2023/07/18 05:12:32;;;;;;;;;;;;;;;;;;5036412;28;19909;-25
2023/07/18 05:14:58;;;;;;;;;;;;;;;;;;5035899;28;19966;-25
2023/07/18 05:17:24;;;;;;;;;;;;;;;;;;5036197;28;19909;-28
2023/07/18 05:19:50;;;;;;;;;;;;;;;;;;5035783;28;19955;-21
2023/07/18 05:22:16;;;;;;;;;;;;;;;;;;5035798;28;19957;-23
2023/07/18 05:24:42;;;;;;;;;;;;;;;;;;5018246;28;20314;-21
2023/07/18 05:27:08;;;;;;;;;;;;;;;;;;5035691;28;20237;-25
2023/07/18 05:29:34;;;;;;;;;;;;;;;;;;5035606;28;20394;-25
2023/07/18 05:32:01;;;;;;;;;;;;;;;;;;5018006;28;20019;-22
2023/07/18 05:34:27;;;;;;;;;;;;;;;;;;5035584;28;19909;-26
2023/07/18 05:36:53;;;;;;;;;;;;;;;;;;5018803;28;19909;-27
2023/07/18 05:39:19;;;;;;;;;;;;;;;;;;5035765;28;20229;-24
2023/07/18 05:41:45;;;;;;;;;;;;;;;;;;5035174;28;19930;-25
2023/07/18 05:44:11;;;;;;;;;;;;;;;;;;5035375;28;19936;-23
2023/07/18 05:46:37;;;;;;;;;;;;;;;;;;5017632;28;19955;-28
2023/07/18 05:49:02;;;;;;;;;;;;;;;;;;5035148;28;19937;-25
2023/07/18 05:51:31;;;;;;;;;;;;;;;;;;5035080;28;19916;-25
2023/07/18 05:53:57;;;;;;;;;;;;;;;;;;5034866;28;19909;-26
2023/07/18 05:56:23;;;;;;;;;;;;;;;;;;5034759;28;19917;-24
2023/07/18 05:58:49;;;;;;;;;;;;;;;;;;5017572;28;19909;-24
2023/07/18 06:01:15;;;;;;;;;;;;;;;;;;5034969;28;19974;-22
2023/07/18 06:03:41;;;;;;;;;;;;;;;;;;5007801;28;19921;-25
2023/07/18 06:06:07;;;;;;;;;;;;;;;;;;4995849;28;20346;-24
2023/07/18 06:08:33;;;;;;;;;;;;;;;;;;4995583;28;19916;-25
2023/07/18 06:10:59;;;;;;;;;;;;;;;;;;4995587;28;19941;-27
2023/07/18 06:13:25;;;;;;;;;;;;;;;;;;4994472;28;20349;-26
2023/07/18 06:15:50;;;;;;;;;;;;;;;;;;4995241;28;19996;-22
2023/07/18 06:18:16;;;;;;;;;;;;;;;;;;4995288;28;19910;-28
2023/07/18 06:20:43;;;;;;;;;;;;;;;;;;4995361;28;20032;-24
2023/07/18 06:23:09;;;;;;;;;;;;;;;;;;4995264;28;19914;-23
2023/07/18 06:25:35;;;;;;;;;;;;;;;;;;4995067;28;19909;-27
2023/07/18 06:28:02;;;;;;;;;;;;;;;;;;4995064;28;19910;-25
2023/07/18 06:30:27;;;;;;;;;;;;;;;;;;4994900;28;19936;-26
2023/07/18 06:32:53;;;;;;;;;;;;;;;;;;4994121;28;19914;-30
2023/07/18 06:35:19;;;;;;;;;;;;;;;;;;4995545;28;19910;-22
2023/07/18 06:37:45;;;;;;;;;;;;;;;;;;4995110;28;20017;-29
2023/07/18 06:40:12;;;;;;;;;;;;;;;;;;4994957;28;19910;-24
2023/07/18 06:42:38;;;;;;;;;;;;;;;;;;4994964;28;19980;-22
2023/07/18 06:45:04;;;;;;;;;;;;;;;;;;4995333;28;19914;-22
2023/07/18 06:47:30;;;;;;;;;;;;;;;;;;4995007;28;19965;-25
2023/07/18 06:49:56;;;;;;;;;;;;;;;;;;4995153;28;19964;-26
2023/07/18 06:52:22;;;;;;;;;;;;;;;;;;4994868;28;19909;-28
2023/07/18 06:54:48;;;;;;;;;;;;;;;;;;4995261;28;19909;-22
2023/07/18 06:57:15;;;;;;;;;;;;;;;;;;4994913;28;20012;-22
2023/07/18 06:59:41;;;;;;;;;;;;;;;;;;4994142;28;19910;-22
2023/07/18 07:02:10;;;;;;;;;;;;;;;;;;4995123;28;19914;-22
2023/07/18 07:04:36;;;;;;;;;;;;;;;;;;5022422;28;19940;-25
2023/07/18 07:07:02;;;;;;;;;;;;;;;;;;5034506;28;20229;-31
2023/07/18 07:09:29;;;;;;;;;;;;;;;;;;5034233;28;19916;-21
2023/07/18 07:11:55;;;;;;;;;;;;;;;;;;5016835;28;19947;-22
2023/07/18 07:14:21;;;;;;;;;;;;;;;;;;5034620;28;19909;-22
2023/07/18 07:16:47;;;;;;;;;;;;;;;;;;5038411;28;20244;-25
2023/07/18 07:19:13;;;;;;;;;;;;;;;;;;5038713;28;19913;-24
2023/07/18 07:21:39;;;;;;;;;;;;;;;;;;5038184;28;19967;-24
2023/07/18 07:24:05;;;;;;;;;;;;;;;;;;5038027;28;20348;-23
2023/07/18 07:26:31;;;;;;;;;;;;;;;;;;5038476;28;19909;-25
2023/07/18 07:28:57;;;;;;;;;;;;;;;;;;5038037;28;19909;-24
2023/07/18 07:31:23;;;;;;;;;;;;;;;;;;5038347;28;19909;-25
2023/07/18 07:33:49;;;;;;;;;;;;;;;;;;5037982;28;19913;-28
2023/07/18 07:36:15;;;;;;;;;;;;;;;;;;5037987;28;19920;-25
2023/07/18 07:38:41;;;;;;;;;;;;;;;;;;5038246;28;20233;-25
2023/07/18 07:41:07;;;;;;;;;;;;;;;;;;5037856;28;19920;-24
2023/07/18 07:43:33;;;;;;;;;;;;;;;;;;5038027;28;19909;-23
2023/07/18 07:45:59;;;;;;;;;;;;;;;;;;5037544;28;19909;-23
2023/07/18 07:48:25;;;;;;;;;;;;;;;;;;5037484;28;20363;-24
2023/07/18 07:50:50;;;;;;;;;;;;;;;;;;5037839;28;19925;-29
2023/07/18 07:53:16;;;;;;;;;;;;;;;;;;5037770;28;19909;-26
2023/07/18 07:55:42;;;;;;;;;;;;;;;;;;5037781;28;19909;-26
2023/07/18 07:58:08;;;;;;;;;;;;;;;;;;5037669;28;19941;-26
2023/07/18 08:00:34;;;;;;;;;;;;;;;;;;5037421;28;20306;-26
2023/07/18 08:03:00;;;;;;;;;;;;;;;;;;5019839;28;19909;-25
2023/07/18 08:05:27;;;;;;;;;;;;;;;;;;5020017;28;19912;-22
2023/07/18 08:07:53;;;;;;;;;;;;;;;;;;5037341;28;19916;-26
2023/07/18 08:10:19;;;;;;;;;;;;;;;;;;5037222;28;19909;-29
2023/07/18 08:12:45;;;;;;;;;;;;;;;;;;5037647;28;19994;-23
2023/07/18 08:15:11;;;;;;;;;;;;;;;;;;5036854;28;19909;-22
2023/07/18 08:17:37;;;;;;;;;;;;;;;;;;5036807;28;19936;-24
2023/07/18 08:20:04;;;;;;;;;;;;;;;;;;5037192;28;19910;-30
2023/07/18 08:22:30;;;;;;;;;;;;;;;;;;5037194;28;19917;-24
2023/07/18 08:24:56;;;;;;;;;;;;;;;;;;5036956;28;19932;-23
2023/07/18 08:27:22;;;;;;;;;;;;;;;;;;5036515;28;19916;-24
2023/07/18 08:29:48;;;;;;;;;;;;;;;;;;5036679;28;20004;-24
2023/07/18 08:32:14;;;;;;;;;;;;;;;;;;5036880;28;19964;-24
2023/07/18 08:34:40;;;;;;;;;;;;;;;;;;5037002;28;19909;-28
2023/07/18 08:37:08;;;;;;;;;;;;;;;;;;5019143;28;20344;-26
2023/07/18 08:39:34;;;;;;;;;;;;;;;;;;5019797;28;20359;-26
2023/07/18 08:42:00;;;;;;;;;;;;;;;;;;5036618;28;19959;-28
2023/07/18 08:44:26;;;;;;;;;;;;;;;;;;5036630;28;19909;-23
2023/07/18 08:46:52;;;;;;;;;;;;;;;;;;5036084;28;19916;-26
2023/07/18 08:49:19;;;;;;;;;;;;;;;;;;5036010;28;20252;-27
2023/07/18 08:51:45;;;;;;;;;;;;;;;;;;5018387;28;19913;-27
2023/07/18 08:54:12;;;;;;;;;;;;;;;;;;5035912;28;19952;-23
2023/07/18 08:56:40;;;;;;;;;;;;;;;;;;5035885;28;19913;-24
2023/07/18 08:59:06;;;;;;;;;;;;;;;;;;5036035;28;19909;-21
2023/07/18 09:01:32;;;;;;;;;;;;;;;;;;5035873;28;20019;-22
2023/07/18 09:03:58;;;;;;;;;;;;;;;;;;5035429;28;20344;-25
2023/07/18 09:06:24;;;;;;;;;;;;;;;;;;5018161;28;19967;-28
2023/07/18 09:08:50;;;;;;;;;;;;;;;;;;5035715;28;19917;-28
2023/07/18 09:11:16;;;;;;;;;;;;;;;;;;5035901;28;19916;-29
2023/07/18 09:13:42;;;;;;;;;;;;;;;;;;5035598;28;19910;-27
2023/07/18 09:16:08;;;;;;;;;;;;;;;;;;5035572;28;19971;-23
2023/07/18 09:18:34;;;;;;;;;;;;;;;;;;5035655;28;19913;-26
2023/07/18 09:21:00;;;;;;;;;;;;;;;;;;5035269;28;19924;-27
2023/07/18 09:23:26;;;;;;;;;;;;;;;;;;5035379;28;19915;-28
2023/07/18 09:25:52;;;;;;;;;;;;;;;;;;5017831;28;19909;-25
2023/07/18 09:28:18;;;;;;;;;;;;;;;;;;5035539;28;19909;-22
2023/07/18 09:30:43;;;;;;;;;;;;;;;;;;5036000;28;19914;-27
2023/07/18 09:33:09;;;;;;;;;;;;;;;;;;5035582;28;20263;-25
2023/07/18 09:35:35;;;;;;;;;;;;;;;;;;5035608;28;19913;-25
2023/07/18 09:38:01;;;;;;;;;;;;;;;;;;5034977;28;19909;-23
2023/07/18 09:40:27;;;;;;;;;;;;;;;;;;5035875;28;20343;-24
2023/07/18 09:42:53;;;;;;;;;;;;;;;;;;5035481;28;19936;-24
2023/07/18 09:45:19;;;;;;;;;;;;;;;;;;5035894;28;19953;-26
2023/07/18 09:47:45;;;;;;;;;;;;;;;;;;5035445;28;19920;-23
2023/07/18 09:50:14;;;;;;;;;;;;;;;;;;5017893;28;19909;-22
2023/07/18 09:52:40;;;;;;;;;;;;;;;;;;5035165;28;19917;-21
2023/07/18 09:55:06;;;;;;;;;;;;;;;;;;5035541;28;19917;-24
2023/07/18 09:57:32;;;;;;;;;;;;;;;;;;5035007;28;19995;-26
2023/07/18 09:59:58;;;;;;;;;;;;;;;;;;5035241;28;20343;-26
2023/07/18 10:02:24;;;;;;;;;;;;;;;;;;5035031;28;20374;-29
2023/07/18 10:04:50;;;;;;;;;;;;;;;;;;5035136;28;20003;-26
2023/07/18 10:07:16;;;;;;;;;;;;;;;;;;5035961;28;19909;-24
2023/07/18 10:09:42;;;;;;;;;;;;;;;;;;5035211;28;19955;-23
2023/07/18 10:12:08;;;;;;;;;;;;;;;;;;5017482;28;20267;-25
2023/07/18 10:14:34;;;;;;;;;;;;;;;;;;5034998;28;19913;-31
2023/07/18 10:17:05;;;;;;;;;;;;;;;;;;5034960;28;19971;-27
2023/07/18 10:19:31;;;;;;;;;;;;;;;;;;5035171;28;19974;-21
2023/07/18 10:21:58;;;;;;;;;;;;;;;;;;5034877;28;19961;-24
2023/07/18 10:24:24;;;;;;;;;;;;;;;;;;5035113;28;20074;-24
2023/07/18 10:26:50;;;;;;;;;;;;;;;;;;5034851;28;20065;-29
2023/07/18 10:29:16;;;;;;;;;;;;;;;;;;5035009;28;19976;-24
2023/07/18 10:31:42;;;;;;;;;;;;;;;;;;5034802;28;19928;-27
2023/07/18 10:34:09;;;;;;;;;;;;;;;;;;5016658;28;20012;-23
2023/07/18 10:36:35;;;;;;;;;;;;;;;;;;5034363;28;19974;-26
2023/07/18 10:39:01;;;;;;;;;;;;;;;;;;5034708;28;19910;-26
2023/07/18 10:41:27;;;;;;;;;;;;;;;;;;5034329;28;20297;-26
2023/07/18 10:43:53;;;;;;;;;;;;;;;;;;5034795;28;20003;-26
2023/07/18 10:46:19;;;;;;;;;;;;;;;;;;5034230;28;19909;-26
2023/07/18 10:48:45;;;;;;;;;;;;;;;;;;5034197;28;20336;-27
2023/07/18 10:51:11;;;;;;;;;;;;;;;;;;5034190;28;19909;-21
2023/07/18 10:53:37;;;;;;;;;;;;;;;;;;5034553;28;19909;-25
2023/07/18 10:56:03;;;;;;;;;;;;;;;;;;5034463;28;19966;-22
2023/07/18 10:58:31;;;;;;;;;;;;;;;;;;5016649;28;19919;-23
2023/07/18 11:00:57;;;;;;;;;;;;;;;;;;5033916;28;19913;-23
2023/07/18 11:03:23;;;;;;;;;;;;;;;;;;5033592;28;19917;-27
2023/07/18 11:05:49;;;;;;;;;;;;;;;;;;5033980;28;20016;-28
2023/07/18 11:08:15;;;;;;;;;;;;;;;;;;5033814;28;20318;-28
2023/07/18 11:10:41;;;;;;;;;;;;;;;;;;5016250;28;19909;-31
2023/07/18 11:13:07;;;;;;;;;;;;;;;;;;5016154;28;19976;-23
2023/07/18 11:15:33;;;;;;;;;;;;;;;;;;5033585;28;20324;-26
2023/07/18 11:17:59;;;;;;;;;;;;;;;;;;5016304;28;20027;-25
2023/07/18 11:20:25;;;;;;;;;;;;;;;;;;5033608;28;19917;-28
2023/07/18 11:22:52;;;;;;;;;;;;;;;;;;5034140;28;19913;-25
2023/07/18 11:25:18;;;;;;;;;;;;;;;;;;5034186;28;19932;-25
2023/07/18 11:27:44;;;;;;;;;;;;;;;;;;5034133;28;20304;-23
2023/07/18 11:30:10;;;;;;;;;;;;;;;;;;5033896;28;19920;-33
2023/07/18 11:32:37;;;;;;;;;;;;;;;;;;5016348;28;20341;-22
2023/07/18 11:35:06;;;;;;;;;;;;;;;;;;5034208;28;19932;-27
2023/07/18 11:37:32;;;;;;;;;;;;;;;;;;5034122;28;19920;-25
2023/07/18 11:39:58;;;;;;;;;;;;;;;;;;5033793;28;20268;-28
2023/07/18 11:42:25;;;;;;;;;;;;;;;;;;5033871;28;19917;-31
2023/07/18 11:44:50;;;;;;;;;;;;;;;;;;5034087;28;20336;-24
2023/07/18 11:47:17;;;;;;;;;;;;;;;;;;5033859;28;19920;-27
2023/07/18 11:49:44;;;;;;;;;;;;;;;;;;5034037;28;20299;-25
2023/07/18 11:52:11;;;;;;;;;;;;;;;;;;5033602;28;19916;-26
2023/07/18 11:54:37;;;;;;;;;;;;;;;;;;5033781;28;19909;-25
2023/07/18 11:57:03;;;;;;;;;;;;;;;;;;5034009;28;19920;-25
2023/07/18 11:59:29;;;;;;;;;;;;;;;;;;5033839;28;19975;-26
2023/07/18 12:01:55;;;;;;;;;;;;;;;;;;5035005;28;20355;-28
2023/07/18 12:04:21;;;;;;;;;;;;;;;;;;5037099;28;20263;-24
2023/07/18 12:06:47;;;;;;;;;;;;;;;;;;5019841;28;19959;-27
2023/07/18 12:09:13;;;;;;;;;;;;;;;;;;5037270;28;19945;-27
2023/07/18 12:11:39;;;;;;;;;;;;;;;;;;5037259;28;19912;-30
2023/07/18 12:14:08;;;;;;;;;;;;;;;;;;5037271;28;19909;-29
2023/07/18 12:16:34;;;;;;;;;;;;;;;;;;5019865;28;19981;-24
2023/07/18 12:19:00;;;;;;;;;;;;;;;;;;5037360;28;20339;-26
2023/07/18 12:21:26;;;;;;;;;;;;;;;;;;5036945;28;20328;-25
2023/07/18 12:23:52;;;;;;;;;;;;;;;;;;5037019;28;19944;-27
2023/07/18 12:26:18;;;;;;;;;;;;;;;;;;5036908;28;20274;-26
2023/07/18 12:28:44;;;;;;;;;;;;;;;;;;5037007;28;19913;-29
2023/07/18 12:31:10;;;;;;;;;;;;;;;;;;5037215;28;19956;-24
2023/07/18 12:33:38;;;;;;;;;;;;;;;;;;5037084;28;20221;-36
2023/07/18 12:36:04;;;;;;;;;;;;;;;;;;5036774;28;20309;-28
2023/07/18 12:38:30;;;;;;;;;;;;;;;;;;5036994;28;19917;-24
2023/07/18 12:40:56;;;;;;;;;;;;;;;;;;5036581;28;19917;-30
2023/07/18 12:43:22;;;;;;;;;;;;;;;;;;5036590;28;19909;-26
2023/07/18 12:45:48;;;;;;;;;;;;;;;;;;5036441;28;19999;-22
2023/07/18 12:48:14;;;;;;;;;;;;;;;;;;5036506;28;19913;-24
2023/07/18 12:50:40;;;;;;;;;;;;;;;;;;5036398;28;20004;-30
2023/07/18 12:53:06;;;;;;;;;;;;;;;;;;5036299;28;20288;-24
2023/07/18 12:55:32;;;;;;;;;;;;;;;;;;5036315;28;20372;-27
2023/07/18 12:57:58;;;;;;;;;;;;;;;;;;5018774;28;19999;-25
2023/07/18 13:00:24;;;;;;;;;;;;;;;;;;5036232;28;19913;-22
2023/07/18 13:02:50;;;;;;;;;;;;;;;;;;5036154;28;20279;-26
2023/07/18 13:05:16;;;;;;;;;;;;;;;;;;5035082;28;19921;-29
2023/07/18 13:07:42;;;;;;;;;;;;;;;;;;5035216;28;19928;-25
2023/07/18 13:10:08;;;;;;;;;;;;;;;;;;5035369;28;19909;-26
2023/07/18 13:12:34;;;;;;;;;;;;;;;;;;5034408;28;20435;-24
2023/07/18 13:15:00;;;;;;;;;;;;;;;;;;5034937;28;19909;-25
2023/07/18 13:17:26;;;;;;;;;;;;;;;;;;5034933;28;19921;-25
2023/07/18 13:19:53;;;;;;;;;;;;;;;;;;5035114;28;19939;-25
2023/07/18 13:22:20;;;;;;;;;;;;;;;;;;5035023;28;19913;-24
2023/07/18 13:24:46;;;;;;;;;;;;;;;;;;5035076;28;19909;-23
2023/07/18 13:27:12;;;;;;;;;;;;;;;;;;5035496;28;19931;-24
2023/07/18 13:29:38;;;;;;;;;;;;;;;;;;5035036;28;19909;-28
2023/07/18 13:32:04;;;;;;;;;;;;;;;;;;5035107;28;20003;-29
2023/07/18 13:34:30;;;;;;;;;;;;;;;;;;5034906;28;19909;-21
2023/07/18 13:36:56;;;;;;;;;;;;;;;;;;5035045;28;19963;-23
2023/07/18 13:39:22;;;;;;;;;;;;;;;;;;5034812;28;19912;-22
2023/07/18 13:41:48;;;;;;;;;;;;;;;;;;5034799;28;20011;-28
2023/07/18 13:44:14;;;;;;;;;;;;;;;;;;5034722;28;19913;-25
2023/07/18 13:46:40;;;;;;;;;;;;;;;;;;5034761;28;19913;-25
2023/07/18 13:49:06;;;;;;;;;;;;;;;;;;5035089;28;19952;-28
2023/07/18 13:51:32;;;;;;;;;;;;;;;;;;5034649;28;19959;-29
2023/07/18 13:53:58;;;;;;;;;;;;;;;;;;5034397;28;19909;-23
2023/07/18 13:56:24;;;;;;;;;;;;;;;;;;5034314;28;19909;-19
2023/07/18 13:58:50;;;;;;;;;;;;;;;;;;5034702;28;19916;-25
2023/07/18 14:01:15;;;;;;;;;;;;;;;;;;5034241;28;19924;-26
2023/07/18 14:03:41;;;;;;;;;;;;;;;;;;4962834;28;2044698;-28
2023/07/18 14:06:07;;;;;;;;;;;;;;;;;;5036024;28;19909;-29
2023/07/18 14:08:33;;;;;;;;;;;;;;;;;;5035327;28;19909;-25
2023/07/18 14:10:59;;;;;;;;;;;;;;;;;;5035493;28;19924;-25
2023/07/18 14:13:25;;;;;;;;;;;;;;;;;;5017678;28;19905;-24
2023/07/18 14:15:51;;;;;;;;;;;;;;;;;;5035196;28;20237;-23
2023/07/18 14:18:17;;;;;;;;;;;;;;;;;;5035252;28;19971;-27
2023/07/18 14:20:43;;;;;;;;;;;;;;;;;;5034933;28;19909;-24
2023/07/18 14:23:09;;;;;;;;;;;;;;;;;;5034815;28;19909;-26
2023/07/18 14:25:35;;;;;;;;;;;;;;;;;;5034671;28;19909;-26
2023/07/18 14:28:01;;;;;;;;;;;;;;;;;;5035250;28;19957;-25
2023/07/18 14:30:27;;;;;;;;;;;;;;;;;;5034845;28;19912;-28
2023/07/18 14:32:54;;;;;;;;;;;;;;;;;;5035020;28;19959;-26
2023/07/18 14:35:20;;;;;;;;;;;;;;;;;;5035143;28;19909;-24
2023/07/18 14:37:46;;;;;;;;;;;;;;;;;;5035076;28;19945;-24
2023/07/18 14:40:12;;;;;;;;;;;;;;;;;;5034731;28;19909;-26
2023/07/18 14:42:38;;;;;;;;;;;;;;;;;;5034539;28;20009;-25
2023/07/18 14:45:03;;;;;;;;;;;;;;;;;;5034706;28;19913;-27
2023/07/18 14:47:30;;;;;;;;;;;;;;;;;;5034676;28;20006;-23
2023/07/18 14:49:58;;;;;;;;;;;;;;;;;;5034566;28;19963;-27
2023/07/18 14:52:24;;;;;;;;;;;;;;;;;;5034273;28;19913;-28
2023/07/18 14:54:51;;;;;;;;;;;;;;;;;;5034622;28;19916;-22
2023/07/18 14:57:17;;;;;;;;;;;;;;;;;;5033927;28;20027;-28
2023/07/18 14:59:43;;;;;;;;;;;;;;;;;;5016469;28;19944;-26
2023/07/18 15:02:09;;;;;;;;;;;;;;;;;;5016190;28;20267;-26
2023/07/18 15:04:35;;;;;;;;;;;;;;;;;;5033568;28;19928;-26
2023/07/18 15:07:01;;;;;;;;;;;;;;;;;;5034440;28;19909;-25
2023/07/18 15:09:27;;;;;;;;;;;;;;;;;;5034251;28;19913;-27
2023/07/18 15:11:53;;;;;;;;;;;;;;;;;;5034441;28;19971;-22
2023/07/18 15:14:19;;;;;;;;;;;;;;;;;;5033880;28;19909;-24
2023/07/18 15:16:45;;;;;;;;;;;;;;;;;;5033809;28;19999;-25
2023/07/18 15:19:11;;;;;;;;;;;;;;;;;;5033720;28;20230;-30
2023/07/18 15:21:37;;;;;;;;;;;;;;;;;;5033645;28;19917;-24
2023/07/18 15:24:03;;;;;;;;;;;;;;;;;;5033639;28;20252;-27
2023/07/18 15:26:29;;;;;;;;;;;;;;;;;;5033606;28;20024;-23
2023/07/18 15:28:55;;;;;;;;;;;;;;;;;;5034704;28;19909;-25
2023/07/18 15:31:21;;;;;;;;;;;;;;;;;;5033761;28;19920;-24
2023/07/18 15:33:47;;;;;;;;;;;;;;;;;;5033778;28;19913;-23
2023/07/18 15:36:13;;;;;;;;;;;;;;;;;;5034642;28;19963;-26
2023/07/18 15:38:39;;;;;;;;;;;;;;;;;;5038103;28;19909;-26
2023/07/18 15:41:05;;;;;;;;;;;;;;;;;;5038243;28;19913;-29
2023/07/18 15:43:32;;;;;;;;;;;;;;;;;;5038056;28;19909;-22
2023/07/18 15:45:57;;;;;;;;;;;;;;;;;;5038048;28;20298;-23
2023/07/18 15:48:25;;;;;;;;;;;;;;;;;;5038117;28;19936;-26
2023/07/18 15:50:51;;;;;;;;;;;;;;;;;;5038112;28;19920;-23
2023/07/18 15:53:17;;;;;;;;;;;;;;;;;;5037802;28;19909;-27
2023/07/18 15:55:43;;;;;;;;;;;;;;;;;;5037893;28;19919;-23
2023/07/18 15:58:09;;;;;;;;;;;;;;;;;;5038678;28;19959;-25
2023/07/18 16:00:35;;;;;;;;;;;;;;;;;;5020075;28;20390;-26
2023/07/18 16:03:01;;;;;;;;;;;;;;;;;;5037509;28;19939;-26
2023/07/18 16:05:27;;;;;;;;;;;;;;;;;;5037514;28;20001;-23
2023/07/18 16:07:53;;;;;;;;;;;;;;;;;;5037802;28;20225;-26
2023/07/18 16:10:19;;;;;;;;;;;;;;;;;;5038223;28;19909;-25
2023/07/18 16:12:45;;;;;;;;;;;;;;;;;;5037559;28;19909;-28
2023/07/18 16:15:11;;;;;;;;;;;;;;;;;;5037471;28;19944;-26
2023/07/18 16:17:37;;;;;;;;;;;;;;;;;;5037912;28;19909;-25
2023/07/18 16:20:04;;;;;;;;;;;;;;;;;;5037198;28;20386;-24
2023/07/18 16:22:30;;;;;;;;;;;;;;;;;;5037281;28;20006;-22
2023/07/18 16:24:55;;;;;;;;;;;;;;;;;;5037366;28;20272;-26
2023/07/18 16:27:22;;;;;;;;;;;;;;;;;;5037499;28;20328;-29
2023/07/18 16:29:48;;;;;;;;;;;;;;;;;;5037453;28;19988;-26
2023/07/18 16:32:13;;;;;;;;;;;;;;;;;;5037002;28;20344;-24
2023/07/18 16:34:39;;;;;;;;;;;;;;;;;;5037326;28;19941;-26
2023/07/18 16:37:05;;;;;;;;;;;;;;;;;;5037015;28;19909;-27